createdAt,value
2023-01-12T00:01:39.904Z,5.91
2023-01-12T00:04:06.490Z,5.81
2023-01-12T00:06:33.051Z,5.80
2023-01-12T00:08:59.591Z,5.83
2023-01-12T00:11:26.244Z,5.97
2023-01-12T00:13:52.698Z,5.99
2023-01-12T00:16:37.667Z,6.01
2023-01-12T00:19:12.690Z,6.14
2023-01-12T00:21:58.789Z,6.15
2023-01-12T00:24:30.426Z,6.22
2023-01-12T00:26:57.799Z,6.32
2023-01-12T00:29:24.521Z,6.32
2023-01-12T00:31:51.051Z,6.42
2023-01-12T00:34:17.585Z,6.38
2023-01-12T00:36:44.861Z,6.33
2023-01-12T00:39:11.375Z,6.33
2023-01-12T00:41:57.120Z,6.43
2023-01-12T00:44:42.834Z,6.42
2023-01-12T00:47:09.613Z,6.49
2023-01-12T00:49:36.260Z,6.56
2023-01-12T00:52:03.159Z,6.55
2023-01-12T00:54:29.629Z,6.50
2023-01-12T00:56:56.148Z,6.48
2023-01-12T00:59:22.651Z,6.52
2023-01-12T01:01:49.288Z,6.37
2023-01-12T01:04:16.158Z,6.38
2023-01-12T01:06:42.649Z,6.37
2023-01-12T01:09:09.168Z,6.38
2023-01-12T01:11:35.625Z,6.37
2023-01-12T01:14:02.438Z,6.24
2023-01-12T01:16:29.713Z,6.19
2023-01-12T01:18:56.879Z,6.22
2023-01-12T01:21:23.386Z,6.18
2023-01-12T01:23:49.850Z,6.06
2023-01-12T01:26:17.916Z,6.11
2023-01-12T01:28:44.400Z,6.12
2023-01-12T01:31:13.043Z,6.10
2023-01-12T01:33:39.965Z,6.03
2023-01-12T01:36:06.534Z,6.02
2023-01-12T01:38:33.137Z,6.00
2023-01-12T01:40:59.632Z,6.02
2023-01-12T01:43:26.836Z,5.96
2023-01-12T01:46:07.470Z,5.96
2023-01-12T01:48:34.653Z,6.06
2023-01-12T01:51:04.118Z,6.03
2023-01-12T01:53:31.781Z,5.98
2023-01-12T01:56:00.968Z,6.01
2023-01-12T01:58:44.863Z,6.01
2023-01-12T02:01:11.391Z,6.01
2023-01-12T02:03:37.982Z,6.05
2023-01-12T02:06:05.268Z,6.15
2023-01-12T02:08:40.803Z,6.16
2023-01-12T02:11:27.255Z,6.20
2023-01-12T02:14:12.222Z,6.15
2023-01-12T02:16:40.818Z,6.20
2023-01-12T02:19:33.191Z,6.26
2023-01-12T02:22:24.284Z,6.22
2023-01-12T02:25:03.545Z,6.29
2023-01-12T02:28:00.929Z,6.22
2023-01-12T02:30:53.091Z,6.25
2023-01-12T02:33:51.930Z,6.19
2023-01-12T02:36:50.798Z,6.16
2023-01-12T02:39:39.799Z,6.21
2023-01-12T02:42:33.985Z,6.13
2023-01-12T02:45:28.343Z,6.20
2023-01-12T02:48:25.168Z,6.18
2023-01-12T02:50:58.251Z,6.16
2023-01-12T02:53:30.158Z,6.13
2023-01-12T02:55:58.244Z,6.25
2023-01-12T02:58:24.712Z,6.19
2023-01-12T03:00:51.815Z,6.20
2023-01-12T03:03:19.270Z,6.27
2023-01-12T03:05:47.473Z,6.24
2023-01-12T03:08:16.072Z,6.30
2023-01-12T03:10:58.279Z,6.23
2023-01-12T03:13:24.731Z,6.19
2023-01-12T03:15:53.032Z,6.19
2023-01-12T03:18:35.256Z,6.14
2023-01-12T03:21:10.007Z,6.23
2023-01-12T03:23:40.996Z,6.23
2023-01-12T03:26:08.177Z,6.25
2023-01-12T03:28:35.712Z,6.19
2023-01-12T03:31:08.824Z,6.14
2023-01-12T03:33:35.627Z,6.17
2023-01-12T03:36:24.532Z,6.15
2023-01-12T03:38:51.108Z,6.31
2023-01-12T03:41:26.450Z,6.21
2023-01-12T03:43:53.798Z,6.30
2023-01-12T03:46:29.250Z,6.23
2023-01-12T03:49:17.301Z,6.43
2023-01-12T03:51:45.310Z,6.36
2023-01-12T03:54:11.816Z,6.36
2023-01-12T03:56:38.462Z,6.41
2023-01-12T03:59:04.979Z,6.43
2023-01-12T04:01:31.952Z,6.39
2023-01-12T04:03:58.528Z,6.42
2023-01-12T04:06:25.014Z,6.52
2023-01-12T04:08:51.507Z,6.48
2023-01-12T04:11:36.504Z,6.49
2023-01-12T04:14:03.206Z,6.56
2023-01-12T04:16:29.806Z,6.50
2023-01-12T04:18:56.436Z,6.56
2023-01-12T04:21:41.620Z,6.47
2023-01-12T04:24:08.093Z,6.47
2023-01-12T04:26:34.585Z,6.48
2023-01-12T04:29:01.052Z,6.41
2023-01-12T04:31:27.582Z,6.41
2023-01-12T04:33:54.066Z,6.44
2023-01-12T04:36:20.554Z,6.51
2023-01-12T04:38:47.033Z,6.41
2023-01-12T04:41:13.524Z,6.45
2023-01-12T04:43:40.003Z,6.46
2023-01-12T04:46:07.373Z,6.48
2023-01-12T04:48:33.912Z,6.53
2023-01-12T04:51:00.792Z,6.46
2023-01-12T04:53:27.440Z,6.41
2023-01-12T04:55:54.231Z,6.41
2023-01-12T04:58:20.712Z,6.40
2023-01-12T05:00:47.184Z,6.44
2023-01-12T05:03:13.927Z,6.41
2023-01-12T05:05:40.408Z,6.41
2023-01-12T05:08:27.458Z,6.40
2023-01-12T05:10:57.838Z,6.41
2023-01-12T05:13:25.403Z,6.40
2023-01-12T05:15:51.867Z,6.40
2023-01-12T05:18:18.338Z,6.47
2023-01-12T05:20:44.793Z,6.40
2023-01-12T05:23:11.252Z,6.41
2023-01-12T05:25:37.757Z,6.49
2023-01-12T05:28:04.388Z,6.45
2023-01-12T05:30:32.063Z,6.40
2023-01-12T05:32:58.861Z,6.45
2023-01-12T05:35:25.356Z,6.40
2023-01-12T05:37:51.845Z,6.39
2023-01-12T05:40:18.368Z,6.39
2023-01-12T05:43:03.219Z,6.37
2023-01-12T05:45:29.700Z,6.42
2023-01-12T05:48:00.342Z,6.46
2023-01-12T05:50:26.803Z,6.43
2023-01-12T05:52:53.603Z,6.43
2023-01-12T05:55:20.383Z,6.42
2023-01-12T05:57:46.862Z,6.43
2023-01-12T06:00:14.043Z,6.42
2023-01-12T06:02:40.525Z,6.44
2023-01-12T06:05:09.413Z,6.47
2023-01-12T06:07:35.955Z,6.46
2023-01-12T06:10:02.467Z,6.41
2023-01-12T06:12:47.421Z,6.48
2023-01-12T06:15:13.897Z,6.47
2023-01-12T06:17:40.381Z,6.44
2023-01-12T06:20:07.280Z,6.45
2023-01-12T06:22:33.762Z,6.46
2023-01-12T06:25:00.243Z,6.46
2023-01-12T06:27:26.742Z,6.49
2023-01-12T06:29:53.213Z,6.48
2023-01-12T06:32:19.742Z,6.53
2023-01-12T06:34:46.207Z,6.50
2023-01-12T06:37:13.071Z,6.49
2023-01-12T06:39:39.554Z,6.47
2023-01-12T06:42:24.594Z,6.46
2023-01-12T06:44:51.064Z,6.48
2023-01-12T06:47:17.561Z,6.44
2023-01-12T06:49:44.014Z,6.50
2023-01-12T06:52:10.492Z,6.45
2023-01-12T06:54:36.955Z,6.48
2023-01-12T06:57:03.883Z,6.50
2023-01-12T06:59:30.341Z,6.56
2023-01-12T07:01:56.830Z,6.45
2023-01-12T07:04:23.358Z,6.47
2023-01-12T07:06:49.883Z,6.47
2023-01-12T07:09:16.356Z,6.55
2023-01-12T07:11:42.808Z,6.48
2023-01-12T07:14:09.454Z,6.44
2023-01-12T07:16:36.000Z,6.44
2023-01-12T07:19:02.515Z,6.40
2023-01-12T07:21:28.978Z,6.38
2023-01-12T07:23:55.447Z,6.41
2023-01-12T07:26:21.922Z,6.45
2023-01-12T07:28:48.395Z,6.44
2023-01-12T07:31:14.892Z,6.40
2023-01-12T07:33:41.367Z,6.38
2023-01-12T07:36:08.050Z,6.43
2023-01-12T07:38:34.760Z,6.35
2023-01-12T07:41:01.880Z,6.35
2023-01-12T07:43:28.388Z,6.35
2023-01-12T07:45:58.334Z,6.35
2023-01-12T07:48:26.514Z,6.40
2023-01-12T07:50:53.459Z,6.39
2023-01-12T07:53:20.284Z,6.39
2023-01-12T07:55:46.788Z,6.36
2023-01-12T07:58:13.277Z,6.42
2023-01-12T08:00:39.756Z,6.37
2023-01-12T08:03:08.248Z,6.36
2023-01-12T08:05:35.104Z,6.30
2023-01-12T08:08:03.403Z,6.34
2023-01-12T08:10:30.277Z,6.32
2023-01-12T08:12:56.780Z,6.26
2023-01-12T08:15:23.619Z,6.35
2023-01-12T08:17:56.962Z,6.31
2023-01-12T08:20:28.202Z,6.29
2023-01-12T08:22:55.820Z,6.28
2023-01-12T08:25:28.082Z,6.24
2023-01-12T08:27:55.415Z,6.21
2023-01-12T08:30:22.781Z,6.22
2023-01-12T08:32:49.243Z,6.26
2023-01-12T08:35:17.746Z,6.23
2023-01-12T08:37:44.227Z,6.24
2023-01-12T08:40:11.357Z,6.20
2023-01-12T08:42:37.840Z,6.27
2023-01-12T08:45:07.021Z,6.30
2023-01-12T08:47:33.509Z,6.27
2023-01-12T08:50:00.882Z,6.30
2023-01-12T08:52:29.688Z,6.31
2023-01-12T08:54:56.237Z,6.30
2023-01-12T08:57:22.746Z,6.28
2023-01-12T08:59:49.275Z,6.28
2023-01-12T09:02:16.064Z,6.22
2023-01-12T09:04:42.761Z,6.27
2023-01-12T09:07:09.951Z,6.28
2023-01-12T09:09:36.451Z,6.29
2023-01-12T09:12:03.072Z,6.34
2023-01-12T09:14:29.711Z,6.34
2023-01-12T09:16:59.105Z,6.32
2023-01-12T09:19:25.723Z,6.33
2023-01-12T09:21:52.412Z,6.35
2023-01-12T09:24:19.377Z,6.41
2023-01-12T09:26:46.100Z,6.41
2023-01-12T09:29:12.941Z,6.43
2023-01-12T09:31:40.994Z,6.43
2023-01-12T09:34:07.463Z,6.45
2023-01-12T09:36:35.314Z,6.50
2023-01-12T09:39:02.072Z,6.49
2023-01-12T09:41:52.267Z,6.59
2023-01-12T09:44:45.994Z,6.64
2023-01-12T09:47:19.637Z,6.65
2023-01-12T09:50:08.061Z,6.66
2023-01-12T09:52:56.454Z,6.75
2023-01-12T09:55:24.431Z,6.79
2023-01-12T09:57:54.305Z,6.80
2023-01-12T10:00:20.776Z,6.88
2023-01-12T10:02:52.982Z,6.93
2023-01-12T10:05:47.549Z,7.04
2023-01-12T10:08:28.478Z,7.05
2023-01-12T10:11:17.687Z,7.00
2023-01-12T10:13:54.408Z,7.03
2023-01-12T10:16:58.477Z,7.06
2023-01-12T10:19:32.025Z,7.16
2023-01-12T10:21:58.573Z,7.14
2023-01-12T10:24:25.090Z,7.13
2023-01-12T10:26:57.756Z,7.22
2023-01-12T10:29:24.230Z,7.19
2023-01-12T10:31:51.680Z,7.24
2023-01-12T10:34:18.624Z,7.27
2023-01-12T10:36:47.681Z,7.35
2023-01-12T10:39:28.847Z,7.34
2023-01-12T10:42:44.053Z,7.40
2023-01-12T10:45:22.127Z,7.37
2023-01-12T10:47:50.575Z,7.37
2023-01-12T10:50:32.689Z,7.42
2023-01-12T10:53:02.000Z,7.50
2023-01-12T10:55:33.474Z,7.53
2023-01-12T10:58:00.269Z,7.53
2023-01-12T11:00:27.497Z,7.52
2023-01-12T11:02:54.243Z,7.63
2023-01-12T11:05:36.667Z,7.61
2023-01-12T11:08:03.902Z,7.66
2023-01-12T11:10:35.641Z,7.62
2023-01-12T11:13:03.767Z,7.64
2023-01-12T11:15:30.995Z,7.63
2023-01-12T11:18:05.603Z,7.68
2023-01-12T11:20:46.512Z,7.69
2023-01-12T11:23:16.553Z,7.74
2023-01-12T11:25:46.923Z,7.75
2023-01-12T11:28:15.903Z,7.77
2023-01-12T11:30:46.790Z,7.85
2023-01-12T11:33:15.614Z,7.79
2023-01-12T11:35:47.166Z,7.76
2023-01-12T11:38:16.630Z,7.90
2023-01-12T11:40:43.109Z,7.90
2023-01-12T11:43:48.590Z,7.83
2023-01-12T11:46:24.968Z,7.91
2023-01-12T11:49:07.523Z,7.89
2023-01-12T11:51:34.083Z,7.92
2023-01-12T11:54:00.571Z,7.94
2023-01-12T11:56:45.727Z,7.91
2023-01-12T11:59:30.527Z,7.96
2023-01-12T12:02:28.677Z,7.95
2023-01-12T12:05:36.600Z,7.97
2023-01-12T12:08:15.291Z,7.97
2023-01-12T12:11:26.637Z,8.08
2023-01-12T12:14:16.194Z,7.99
2023-01-12T12:16:52.039Z,8.05
2023-01-12T12:19:27.992Z,8.04
2023-01-12T12:22:17.214Z,8.04
2023-01-12T12:25:09.673Z,8.11
2023-01-12T12:27:51.477Z,8.12
2023-01-12T12:30:32.947Z,8.16
2023-01-12T12:33:17.765Z,8.15
2023-01-12T12:36:02.747Z,8.15
2023-01-12T12:39:08.343Z,8.24
2023-01-12T12:42:24.622Z,8.21
2023-01-12T12:45:18.516Z,8.25
2023-01-12T12:48:04.899Z,8.32
2023-01-12T12:50:46.713Z,8.31
2023-01-12T12:53:33.464Z,8.35
2023-01-12T12:56:03.502Z,8.38
2023-01-12T12:58:51.115Z,8.39
2023-01-12T13:01:27.299Z,8.40
2023-01-12T13:03:54.097Z,8.45
2023-01-12T13:06:39.632Z,8.48
2023-01-12T13:09:09.471Z,8.41
2023-01-12T13:11:53.903Z,8.49
2023-01-12T13:14:24.807Z,8.54
2023-01-12T13:16:52.571Z,8.48
2023-01-12T13:19:34.383Z,8.59
2023-01-12T13:22:32.218Z,8.57
2023-01-12T13:25:16.550Z,8.50
2023-01-12T13:27:55.910Z,8.52
2023-01-12T13:30:28.235Z,8.51
2023-01-12T13:33:25.637Z,8.47
2023-01-12T13:35:51.939Z,8.45
2023-01-12T13:38:33.504Z,8.49
2023-01-12T13:41:59.118Z,8.48
2023-01-12T13:44:26.475Z,8.51
2023-01-12T13:46:56.764Z,8.49
2023-01-12T13:49:24.292Z,8.55
2023-01-12T13:51:55.915Z,8.65
2023-01-12T13:54:22.403Z,8.55
2023-01-12T13:57:04.090Z,8.54
2023-01-12T13:59:30.953Z,8.56
2023-01-12T14:01:57.506Z,8.58
2023-01-12T14:04:59.494Z,8.62
2023-01-12T14:07:50.323Z,8.60
2023-01-12T14:10:28.131Z,8.63
2023-01-12T14:13:08.261Z,8.60
2023-01-12T14:15:57.064Z,8.60
2023-01-12T14:18:25.027Z,8.62
2023-01-12T14:20:56.113Z,8.63
2023-01-12T14:23:23.600Z,8.55
2023-01-12T14:26:14.842Z,8.61
2023-01-12T14:28:45.834Z,8.57
2023-01-12T14:31:34.731Z,8.59
2023-01-12T14:34:02.405Z,8.58
2023-01-12T14:36:30.660Z,8.62
2023-01-12T14:38:58.546Z,8.59
2023-01-12T14:41:47.598Z,8.60
2023-01-12T14:44:37.880Z,8.66
2023-01-12T14:47:04.365Z,8.68
2023-01-12T14:49:32.270Z,8.67
2023-01-12T14:51:59.548Z,8.61
2023-01-12T14:54:30.983Z,8.59
2023-01-12T14:57:02.762Z,8.62
2023-01-12T14:59:30.818Z,8.57
2023-01-12T15:02:17.268Z,8.54
2023-01-12T15:05:09.601Z,8.58
2023-01-12T15:07:41.205Z,8.50
2023-01-12T15:10:10.524Z,8.65
2023-01-12T15:12:44.059Z,8.60
2023-01-12T15:15:24.341Z,8.54
2023-01-12T15:18:10.027Z,8.59
2023-01-12T15:20:58.740Z,8.51
2023-01-12T15:23:53.986Z,8.55
2023-01-12T15:26:21.217Z,8.56
2023-01-12T15:28:48.473Z,8.58
2023-01-12T15:31:27.517Z,8.54
2023-01-12T15:33:54.297Z,8.51
2023-01-12T15:36:20.801Z,8.52
2023-01-12T15:38:47.312Z,8.52
2023-01-12T15:41:40.063Z,8.51
2023-01-12T15:44:16.762Z,8.61
2023-01-12T15:46:43.321Z,8.55
2023-01-12T15:49:10.534Z,8.60
2023-01-12T15:51:37.090Z,8.61
2023-01-12T15:54:04.059Z,8.55
2023-01-12T15:56:30.545Z,8.62
2023-01-12T15:59:00.318Z,8.57
2023-01-12T16:01:33.589Z,8.60
2023-01-12T16:04:32.013Z,8.59
2023-01-12T16:06:46.590Z,8.61
2023-01-12T16:09:13.125Z,8.63
2023-01-12T16:11:39.668Z,8.59
2023-01-12T16:14:06.196Z,8.64
2023-01-12T16:16:32.668Z,8.60
2023-01-12T16:18:59.754Z,8.64
2023-01-12T16:21:27.290Z,8.62
2023-01-12T16:23:55.187Z,8.59
2023-01-12T16:26:21.813Z,8.57
2023-01-12T16:28:48.375Z,8.64
2023-01-12T16:31:15.123Z,8.54
2023-01-12T16:33:42.124Z,8.56
2023-01-12T16:36:08.996Z,8.62
2023-01-12T16:38:35.567Z,8.57
2023-01-12T16:41:09.313Z,8.55
2023-01-12T16:43:37.330Z,8.63
2023-01-12T16:46:04.685Z,8.57
2023-01-12T16:48:31.839Z,8.59
2023-01-12T16:50:58.397Z,8.59
2023-01-12T16:53:24.926Z,8.59
2023-01-12T16:55:51.554Z,8.62
2023-01-12T16:58:18.854Z,8.64
2023-01-12T17:00:45.455Z,8.53
2023-01-12T17:03:14.018Z,8.59
2023-01-12T17:05:41.426Z,8.64
2023-01-12T17:08:08.470Z,8.59
2023-01-12T17:10:35.533Z,8.62
2023-01-12T17:13:03.067Z,8.55
2023-01-12T17:15:29.948Z,8.55
2023-01-12T17:17:56.951Z,8.56
2023-01-12T17:20:23.563Z,8.55
2023-01-12T17:22:50.594Z,8.55
2023-01-12T17:25:17.197Z,8.45
2023-01-12T17:27:43.711Z,8.57
2023-01-12T17:30:10.810Z,8.53
2023-01-12T17:32:37.636Z,8.47
2023-01-12T17:35:07.175Z,8.46
2023-01-12T17:37:33.742Z,8.49
2023-01-12T17:40:00.474Z,8.47
2023-01-12T17:42:45.490Z,8.56
2023-01-12T17:45:12.021Z,8.50
2023-01-12T17:47:38.496Z,8.49
2023-01-12T17:50:05.322Z,8.41
2023-01-12T17:52:31.806Z,8.49
2023-01-12T17:54:58.351Z,8.43
2023-01-12T17:57:24.870Z,8.51
2023-01-12T17:59:51.421Z,8.52
2023-01-12T18:02:18.265Z,8.47
2023-01-12T18:04:44.873Z,8.57
2023-01-12T18:07:11.368Z,8.49
2023-01-12T18:09:37.921Z,8.56
2023-01-12T18:12:05.138Z,8.56
2023-01-12T18:14:31.694Z,8.56
2023-01-12T18:16:58.195Z,8.52
2023-01-12T18:19:24.732Z,8.44
2023-01-12T18:21:51.212Z,8.45
2023-01-12T18:24:17.777Z,8.48
2023-01-12T18:26:44.335Z,8.46
2023-01-12T18:29:10.833Z,8.43
2023-01-12T18:31:37.738Z,8.42
2023-01-12T18:34:05.244Z,8.47
2023-01-12T18:36:36.812Z,8.43
2023-01-12T18:39:05.124Z,8.46
2023-01-12T18:41:50.169Z,8.47
2023-01-12T18:44:16.716Z,8.46
2023-01-12T18:47:02.138Z,8.42
2023-01-12T18:49:33.094Z,8.46
2023-01-12T18:52:18.247Z,8.45
2023-01-12T18:54:44.944Z,8.40
2023-01-12T18:57:13.076Z,8.40
2023-01-12T18:59:41.824Z,8.44
2023-01-12T19:02:11.051Z,8.50
2023-01-12T19:04:43.544Z,8.51
2023-01-12T19:07:12.279Z,8.37
2023-01-12T19:09:38.829Z,8.41
2023-01-12T19:12:06.142Z,8.38
2023-01-12T19:14:51.271Z,8.45
2023-01-12T19:17:26.827Z,8.46
2023-01-12T19:19:54.033Z,8.44
2023-01-12T19:22:39.336Z,8.50
2023-01-12T19:25:24.452Z,8.51
2023-01-12T19:28:09.538Z,8.45
2023-01-12T19:30:37.898Z,8.57
2023-01-12T19:33:08.892Z,8.49
2023-01-12T19:35:36.631Z,8.39
2023-01-12T19:38:03.131Z,8.39
2023-01-12T19:40:37.070Z,8.33
2023-01-12T19:43:14.461Z,8.48
2023-01-12T19:45:42.371Z,8.49
2023-01-12T19:48:09.126Z,8.46
2023-01-12T19:50:35.820Z,8.44
2023-01-12T19:53:03.437Z,8.53
2023-01-12T19:55:30.504Z,8.45
2023-01-12T19:57:57.172Z,8.49
2023-01-12T20:00:24.243Z,8.41
2023-01-12T20:02:50.747Z,8.47
2023-01-12T20:05:22.489Z,8.49
2023-01-12T20:07:50.223Z,8.39
2023-01-12T20:10:16.758Z,8.51
2023-01-12T20:12:43.235Z,8.40
2023-01-12T20:15:10.402Z,8.47
2023-01-12T20:17:36.952Z,8.47
2023-01-12T20:20:04.115Z,8.47
2023-01-12T20:22:30.588Z,8.46
2023-01-12T20:25:01.044Z,8.49
2023-01-12T20:27:27.734Z,8.55
2023-01-12T20:29:54.240Z,8.53
2023-01-12T20:32:20.948Z,8.51
2023-01-12T20:34:47.568Z,8.53
2023-01-12T20:37:14.041Z,8.57
2023-01-12T20:39:40.513Z,8.55
2023-01-12T20:42:06.998Z,8.59
2023-01-12T20:44:34.042Z,8.51
2023-01-12T20:47:00.597Z,8.47
2023-01-12T20:49:27.078Z,8.52
2023-01-12T20:51:53.574Z,8.57
2023-01-12T20:54:20.056Z,8.57
2023-01-12T20:56:46.540Z,8.45
2023-01-12T20:59:13.014Z,8.43
2023-01-12T21:01:39.581Z,8.45
2023-01-12T21:04:06.090Z,8.49
2023-01-12T21:06:32.650Z,8.48
2023-01-12T21:08:59.141Z,8.47
2023-01-12T21:11:25.637Z,8.47
2023-01-12T21:13:52.133Z,8.42
2023-01-12T21:16:18.968Z,8.47
2023-01-12T21:18:45.624Z,8.53
2023-01-12T21:21:12.266Z,8.48
2023-01-12T21:23:38.901Z,8.47
2023-01-12T21:26:07.714Z,8.47
2023-01-12T21:28:36.318Z,8.57
2023-01-12T21:31:03.334Z,8.50
2023-01-12T21:33:29.920Z,8.46
2023-01-12T21:35:57.202Z,8.39
2023-01-12T21:38:24.468Z,8.43
2023-01-12T21:40:50.965Z,8.51
2023-01-12T21:43:18.114Z,8.43
2023-01-12T21:45:46.481Z,8.48
2023-01-12T21:48:13.604Z,8.45
2023-01-12T21:50:40.297Z,8.50
2023-01-12T21:53:07.154Z,8.51
2023-01-12T21:55:33.751Z,8.43
2023-01-12T21:58:00.434Z,8.42
2023-01-12T22:00:26.935Z,8.38
2023-01-12T22:02:54.461Z,8.38
2023-01-12T22:05:22.238Z,8.37
2023-01-12T22:07:49.404Z,8.34
2023-01-12T22:10:19.397Z,8.41
2023-01-12T22:12:56.961Z,8.42
2023-01-12T22:15:23.746Z,8.41
2023-01-12T22:17:53.005Z,8.35
2023-01-12T22:20:19.480Z,8.38
2023-01-12T22:22:45.957Z,8.35
2023-01-12T22:25:13.138Z,8.36
2023-01-12T22:27:41.537Z,8.38
2023-01-12T22:30:09.381Z,8.37
2023-01-12T22:32:35.867Z,8.40
2023-01-12T22:35:02.351Z,8.38
2023-01-12T22:37:28.911Z,8.41
2023-01-12T22:39:55.473Z,8.43
2023-01-12T22:42:42.259Z,8.39
2023-01-12T22:45:09.506Z,8.40
2023-01-12T22:47:47.555Z,8.39
2023-01-12T22:50:14.790Z,8.34
2023-01-12T22:52:41.755Z,8.41
2023-01-12T22:55:08.535Z,8.42
2023-01-12T22:57:35.016Z,8.32
2023-01-12T23:00:01.485Z,8.25
2023-01-12T23:02:48.359Z,8.23
2023-01-12T23:05:15.038Z,8.26
2023-01-12T23:07:41.678Z,8.31
2023-01-12T23:10:08.470Z,8.29
2023-01-12T23:12:35.162Z,8.25
2023-01-12T23:15:01.850Z,8.31
2023-01-12T23:17:28.900Z,8.31
2023-01-12T23:19:55.511Z,8.40
2023-01-12T23:22:22.125Z,8.40
2023-01-12T23:24:48.716Z,8.41
2023-01-12T23:27:15.327Z,8.44
2023-01-12T23:29:42.665Z,8.49
2023-01-12T23:32:09.347Z,8.50
2023-01-12T23:34:36.007Z,8.63
2023-01-12T23:37:02.616Z,8.63
2023-01-12T23:39:29.229Z,8.66
2023-01-12T23:41:55.845Z,8.65
2023-01-12T23:44:22.497Z,8.79
2023-01-12T23:46:49.419Z,8.75
2023-01-12T23:49:16.070Z,8.70
2023-01-12T23:51:42.851Z,8.75
2023-01-12T23:54:18.208Z,8.75
2023-01-12T23:56:44.833Z,8.72
2023-01-12T23:59:11.780Z,8.67
